Time;durP1;ratioP1;P1;durP2;ratioP2;P2;SDS_P1;SDS_P2;PMS_P1;PMS_P2;Temp;Humidity;BMP_temperature;BMP_pressure;BME280_temperature;BME280_humidity;BME280_pressure;Samples;Min_cycle;Max_cycle;Signal;HPM_P1;HPM_P2
2021/05/10 01:40:14;;;;;;;7.50;5.23;;;;;;;;;;13054804;22;20185;-92
2021/05/10 01:45:16;;;;;;;8.70;4.90;;;;;;;;;;13070835;22;20452;-92
2021/05/10 01:50:21;;;;;;;7.97;5.40;;;;;;;;;;13067364;22;20228;-91
2021/05/10 01:55:26;;;;;;;7.57;4.90;;;;;;;;;;13074842;22;20177;-92
2021/05/10 02:00:30;;;;;;;7.80;4.97;;;;;;;;;;13062524;22;20181;-91
2021/05/10 02:05:33;;;;;;;9.43;5.77;;;;;;;;;;13044762;22;20178;-91
2021/05/10 02:10:37;;;;;;;7.20;5.20;;;;;;;;;;13044893;22;20259;-91
2021/05/10 02:15:42;;;;;;;7.30;5.30;;;;;;;;;;13041556;22;20209;-91
2021/05/10 02:20:44;;;;;;;6.93;5.33;;;;;;;;;;13044301;22;20174;-90
2021/05/10 02:25:48;;;;;;;7.17;5.20;;;;;;;;;;13043182;22;20256;-89
2021/05/10 02:30:51;;;;;;;11.90;6.07;;;;;;;;;;13042474;22;20399;-91
2021/05/10 02:35:54;;;;;;;7.77;5.37;;;;;;;;;;13035729;22;20178;-90
2021/05/10 02:40:57;;;;;;;7.87;5.33;;;;;;;;;;13037637;22;20568;-85
2021/05/10 02:45:59;;;;;;;8.20;4.97;;;;;;;;;;13023404;22;20202;-84
2021/05/10 02:51:01;;;;;;;7.83;4.90;;;;;;;;;;13003595;22;20289;-84
2021/05/10 02:56:04;;;;;;;6.83;4.73;;;;;;;;;;13028251;22;20173;-85
2021/05/10 03:01:06;;;;;;;6.93;4.73;;;;;;;;;;13021606;22;20176;-85
2021/05/10 03:06:08;;;;;;;8.33;4.83;;;;;;;;;;13025890;22;20707;-84
2021/05/10 03:11:11;;;;;;;8.37;4.97;;;;;;;;;;13019787;22;20205;-84
2021/05/10 03:16:13;;;;;;;8.97;5.20;;;;;;;;;;13017104;22;20253;-90
2021/05/10 03:21:15;;;;;;;8.77;5.00;;;;;;;;;;13011271;22;20591;-89
2021/05/10 03:26:18;;;;;;;10.33;5.17;;;;;;;;;;13038064;22;20178;-88
2021/05/10 03:31:20;;;;;;;9.07;5.13;;;;;;;;;;13041758;22;20216;-87
2021/05/10 03:36:22;;;;;;;7.20;4.87;;;;;;;;;;13037382;22;20698;-86
2021/05/10 03:41:28;;;;;;;7.50;5.33;;;;;;;;;;13011529;22;20172;-87
2021/05/10 03:46:30;;;;;;;10.33;5.90;;;;;;;;;;13023683;22;20208;-81
2021/05/10 03:51:31;;;;;;;7.93;5.30;;;;;;;;;;13010490;22;20679;-86
2021/05/10 03:56:34;;;;;;;7.87;5.37;;;;;;;;;;13015601;22;20181;-86
2021/05/10 04:01:36;;;;;;;8.87;4.83;;;;;;;;;;13037554;22;20231;-83
2021/05/10 04:06:51;;;;;;;6.67;4.73;;;;;;;;;;13015028;22;20588;-87
2021/05/10 04:17:15;;;;;;;8.27;4.17;;;;;;;;;;13034033;22;20208;-87
2021/05/10 04:22:20;;;;;;;4.80;3.50;;;;;;;;;;13037395;22;20717;-88
2021/05/10 04:27:29;;;;;;;6.87;3.20;;;;;;;;;;13034806;22;20169;-87
2021/05/10 04:32:31;;;;;;;9.53;3.00;;;;;;;;;;13035973;22;20229;-85
2021/05/10 04:37:36;;;;;;;8.33;3.33;;;;;;;;;;13035738;22;20247;-88
2021/05/10 04:42:39;;;;;;;8.83;2.70;;;;;;;;;;13022799;22;20178;-85
2021/05/10 04:47:42;;;;;;;7.50;2.90;;;;;;;;;;13040689;22;20564;-89
2021/05/10 04:52:45;;;;;;;3.70;2.20;;;;;;;;;;13038993;22;20211;-87
2021/05/10 04:57:52;;;;;;;5.50;2.50;;;;;;;;;;13034683;22;20255;-87
2021/05/10 05:02:55;;;;;;;9.70;2.70;;;;;;;;;;13036343;22;20176;-85
2021/05/10 05:07:57;;;;;;;7.00;2.70;;;;;;;;;;13038659;22;20571;-87
2021/05/10 05:13:06;;;;;;;4.63;2.00;;;;;;;;;;13038064;22;20282;-88
2021/05/10 05:18:09;;;;;;;3.17;1.87;;;;;;;;;;13033783;22;20674;-88
2021/05/10 05:23:21;;;;;;;3.20;1.70;;;;;;;;;;13016465;22;20634;-87
2021/05/10 05:28:25;;;;;;;4.37;1.73;;;;;;;;;;13041620;22;20184;-88
2021/05/10 05:33:28;;;;;;;4.33;1.90;;;;;;;;;;13046668;22;20228;-88
2021/05/10 05:38:34;;;;;;;2.57;1.77;;;;;;;;;;13045095;22;20190;-88
2021/05/10 05:43:38;;;;;;;2.30;1.60;;;;;;;;;;13045918;22;20412;-92
2021/05/10 05:48:43;;;;;;;2.30;1.60;;;;;;;;;;13063373;22;20264;-91
2021/05/10 05:53:46;;;;;;;2.20;1.40;;;;;;;;;;13087767;22;20589;-93
2021/05/10 05:58:50;;;;;;;3.50;1.60;;;;;;;;;;13088983;22;20273;-89
2021/05/10 06:03:53;;;;;;;4.20;1.40;;;;;;;;;;13074513;22;20526;-89
2021/05/10 06:08:56;;;;;;;1.93;1.30;;;;;;;;;;13043840;22;20173;-87
2021/05/10 06:14:00;;;;;;;2.07;1.40;;;;;;;;;;13043510;22;20197;-91
2021/05/10 06:19:02;;;;;;;2.47;1.40;;;;;;;;;;13042985;22;20178;-89
2021/05/10 06:24:04;;;;;;;2.57;1.50;;;;;;;;;;13042064;22;20197;-87
2021/05/10 06:29:08;;;;;;;2.37;1.50;;;;;;;;;;13042632;22;20681;-86
2021/05/10 06:34:10;;;;;;;2.03;1.20;;;;;;;;;;13037750;22;20254;-89
2021/05/10 06:39:12;;;;;;;2.07;1.30;;;;;;;;;;13052345;22;20205;-92
2021/05/10 06:44:15;;;;;;;1.50;1.27;;;;;;;;;;13069624;22;20538;-89
2021/05/10 06:49:18;;;;;;;2.83;1.20;;;;;;;;;;13086111;22;20174;-88
2021/05/10 06:54:23;;;;;;;3.70;1.30;;;;;;;;;;13072621;22;20633;-87
2021/05/10 06:59:26;;;;;;;1.80;1.40;;;;;;;;;;13077084;22;20251;-90
2021/05/10 07:04:29;;;;;;;2.13;1.37;;;;;;;;;;13093399;22;20233;-92
2021/05/10 07:09:32;;;;;;;2.73;1.43;;;;;;;;;;13063226;22;20288;-90
2021/05/10 07:14:36;;;;;;;2.47;1.50;;;;;;;;;;13051561;22;20201;-91
2021/05/10 07:19:38;;;;;;;1.30;1.20;;;;;;;;;;13055344;22;20557;-91
2021/05/10 07:24:44;;;;;;;2.20;1.40;;;;;;;;;;13054442;22;20668;-90
2021/05/10 07:29:57;;;;;;;2.23;1.60;;;;;;;;;;13055093;22;20431;-90
2021/05/10 07:35:00;;;;;;;2.00;1.50;;;;;;;;;;13047574;22;20649;-88
2021/05/10 07:40:08;;;;;;;3.30;1.40;;;;;;;;;;13049925;22;20602;-89
2021/05/10 07:45:13;;;;;;;2.27;1.47;;;;;;;;;;13045468;22;20317;-90
2021/05/10 07:50:15;;;;;;;3.80;1.50;;;;;;;;;;13050300;22;20201;-90
2021/05/10 07:55:19;;;;;;;3.47;1.70;;;;;;;;;;13046005;22;20177;-89
2021/05/10 08:00:26;;;;;;;3.30;1.57;;;;;;;;;;13049926;22;20256;-89
2021/05/10 08:05:29;;;;;;;2.20;1.40;;;;;;;;;;13042053;22;20197;-89
2021/05/10 08:10:31;;;;;;;3.10;1.60;;;;;;;;;;13040684;22;20201;-89
2021/05/10 08:15:34;;;;;;;3.63;1.80;;;;;;;;;;13041926;22;20243;-88
2021/05/10 08:20:37;;;;;;;1.80;1.30;;;;;;;;;;13046086;22;20177;-89
2021/05/10 08:25:42;;;;;;;3.90;1.57;;;;;;;;;;13044580;22;20273;-89
2021/05/10 08:30:45;;;;;;;3.90;1.67;;;;;;;;;;13037500;22;20223;-87
2021/05/10 08:35:48;;;;;;;2.83;1.53;;;;;;;;;;13043231;22;20223;-89
2021/05/10 08:40:58;;;;;;;1.83;1.30;;;;;;;;;;13044246;22;20173;-90
2021/05/10 08:46:04;;;;;;;1.83;1.50;;;;;;;;;;13020538;22;20381;-90
2021/05/10 08:51:06;;;;;;;3.80;1.50;;;;;;;;;;13047420;22;20205;-91
2021/05/10 08:56:12;;;;;;;3.10;1.60;;;;;;;;;;13047831;22;20271;-90
2021/05/10 09:01:16;;;;;;;1.90;1.50;;;;;;;;;;13047236;22;20256;-90
2021/05/10 09:06:21;;;;;;;1.87;1.50;;;;;;;;;;13045827;22;20177;-87
2021/05/10 09:11:23;;;;;;;3.20;1.43;;;;;;;;;;13032369;22;20266;-85
2021/05/10 09:16:26;;;;;;;1.73;1.40;;;;;;;;;;13012038;22;20176;-86
2021/05/10 09:21:31;;;;;;;2.13;1.30;;;;;;;;;;13044351;22;20255;-89
2021/05/10 09:26:42;;;;;;;3.77;1.57;;;;;;;;;;13047100;22;20508;-89
2021/05/10 09:31:49;;;;;;;2.60;1.37;;;;;;;;;;13043886;22;20291;-90
2021/05/10 09:37:01;;;;;;;1.43;1.10;;;;;;;;;;13047167;22;20251;-89
2021/05/10 09:42:06;;;;;;;2.90;1.40;;;;;;;;;;13043930;22;20165;-89
2021/05/10 09:47:09;;;;;;;3.47;1.50;;;;;;;;;;13042165;22;20197;-89
2021/05/10 09:52:19;;;;;;;2.57;1.40;;;;;;;;;;13047717;22;20475;-90
2021/05/10 09:57:24;;;;;;;3.27;1.63;;;;;;;;;;13048459;22;20178;-89
2021/05/10 10:02:34;;;;;;;4.37;1.80;;;;;;;;;;13043493;22;20174;-92
2021/05/10 10:07:38;;;;;;;3.40;2.07;;;;;;;;;;13044209;22;20178;-86
2021/05/10 10:12:52;;;;;;;4.13;2.00;;;;;;;;;;13037581;22;21097;-87
2021/05/10 10:18:03;;;;;;;5.67;2.40;;;;;;;;;;13034679;22;20553;-88
2021/05/10 10:23:06;;;;;;;3.97;2.40;;;;;;;;;;13040189;22;20178;-86
2021/05/10 10:28:09;;;;;;;5.50;2.60;;;;;;;;;;13042481;22;20561;-87
2021/05/10 10:33:15;;;;;;;5.57;2.70;;;;;;;;;;13036998;22;20613;-86
2021/05/10 10:38:25;;;;;;;6.03;2.80;;;;;;;;;;13040670;22;20246;-86
2021/05/10 10:43:28;;;;;;;6.23;2.77;;;;;;;;;;13037839;22;20266;-89
2021/05/10 10:48:32;;;;;;;4.63;2.57;;;;;;;;;;13038595;22;20266;-87
2021/05/10 10:53:43;;;;;;;5.97;2.80;;;;;;;;;;13039011;22;20205;-86
2021/05/10 10:58:51;;;;;;;3.63;2.40;;;;;;;;;;13039369;22;20200;-87
2021/05/10 11:03:54;;;;;;;5.77;2.70;;;;;;;;;;13038377;22;20205;-86
2021/05/10 11:08:57;;;;;;;3.30;2.30;;;;;;;;;;13042649;22;20204;-88
2021/05/10 11:14:01;;;;;;;4.50;1.87;;;;;;;;;;13039896;22;20197;-87
2021/05/10 11:19:05;;;;;;;5.23;2.10;;;;;;;;;;13038991;22;20508;-86
2021/05/10 11:24:13;;;;;;;6.07;2.37;;;;;;;;;;13037702;22;20235;-87
2021/05/10 11:29:34;;;;;;;3.50;1.80;;;;;;;;;;13038210;22;20178;-87
2021/05/10 11:34:40;;;;;;;4.63;2.10;;;;;;;;;;13035460;22;20239;-88
2021/05/10 11:39:42;;;;;;;3.43;2.00;;;;;;;;;;13039383;22;20324;-86
2021/05/10 11:44:45;;;;;;;4.07;2.00;;;;;;;;;;13035463;22;20198;-87
2021/05/10 11:50:06;;;;;;;5.90;1.90;;;;;;;;;;13038532;22;20178;-88
2021/05/10 11:55:13;;;;;;;6.47;2.23;;;;;;;;;;13037060;22;20288;-88
2021/05/10 12:00:16;;;;;;;2.93;1.80;;;;;;;;;;13036374;22;20708;-88
2021/05/10 12:05:19;;;;;;;3.53;1.70;;;;;;;;;;13038155;22;20197;-87
2021/05/10 12:10:22;;;;;;;4.03;1.87;;;;;;;;;;13033442;22;20180;-87
2021/05/10 12:15:25;;;;;;;3.87;1.77;;;;;;;;;;13037354;22;20227;-86
2021/05/10 12:20:28;;;;;;;3.17;1.90;;;;;;;;;;13036275;22;20180;-86
2021/05/10 12:25:31;;;;;;;2.67;1.67;;;;;;;;;;13038093;22;20212;-87
2021/05/10 12:30:34;;;;;;;2.67;1.93;;;;;;;;;;13033248;22;20227;-88
2021/05/10 12:35:40;;;;;;;2.80;1.70;;;;;;;;;;13038502;22;20174;-89
2021/05/10 12:40:45;;;;;;;4.30;2.10;;;;;;;;;;13039098;22;20185;-89
2021/05/10 12:46:02;;;;;;;2.80;2.17;;;;;;;;;;13037381;22;20791;-87
2021/05/10 12:51:07;;;;;;;4.67;2.27;;;;;;;;;;13038808;22;20673;-88
2021/05/10 12:56:10;;;;;;;2.20;1.67;;;;;;;;;;13040806;22;20190;-87
2021/05/10 13:01:14;;;;;;;4.00;2.13;;;;;;;;;;13036885;22;20223;-88
2021/05/10 13:06:20;;;;;;;2.90;1.90;;;;;;;;;;13038491;22;20184;-87
2021/05/10 13:11:34;;;;;;;3.77;2.17;;;;;;;;;;13038012;22;20237;-86
2021/05/10 13:22:29;;;;;;;4.93;2.13;;;;;;;;;;13035913;22;20174;-87
2021/05/10 13:33:07;;;;;;;4.10;2.10;;;;;;;;;;13033108;22;20207;-87
2021/05/10 13:38:09;;;;;;;5.40;2.10;;;;;;;;;;13025926;22;20188;-88
2021/05/10 13:43:19;;;;;;;4.50;2.27;;;;;;;;;;13034792;22;20193;-87
2021/05/10 13:48:23;;;;;;;5.10;2.20;;;;;;;;;;13035685;22;20197;-89
2021/05/10 13:53:25;;;;;;;3.80;2.03;;;;;;;;;;13035981;22;20205;-87
2021/05/10 13:58:32;;;;;;;3.03;2.10;;;;;;;;;;13036734;22;20682;-88
2021/05/10 14:03:34;;;;;;;4.00;2.10;;;;;;;;;;13032466;22;20279;-87
2021/05/10 14:08:36;;;;;;;5.13;2.43;;;;;;;;;;13035160;22;20174;-88
2021/05/10 14:13:39;;;;;;;5.33;2.60;;;;;;;;;;13030596;22;20205;-87
2021/05/10 14:18:44;;;;;;;5.70;2.30;;;;;;;;;;13034293;22;20180;-88
2021/05/10 14:23:49;;;;;;;5.33;2.50;;;;;;;;;;13013546;22;20166;-88
2021/05/10 14:28:55;;;;;;;5.97;2.53;;;;;;;;;;13031871;22;20227;-87
2021/05/10 14:33:57;;;;;;;6.67;2.53;;;;;;;;;;13030459;22;20615;-88
2021/05/10 14:39:00;;;;;;;7.30;2.60;;;;;;;;;;13029537;22;20284;-89
2021/05/10 14:44:05;;;;;;;6.30;2.50;;;;;;;;;;13003777;22;20202;-89
2021/05/10 14:49:08;;;;;;;6.40;2.30;;;;;;;;;;13028977;22;20570;-87
2021/05/10 14:54:12;;;;;;;7.20;2.50;;;;;;;;;;13031840;22;20267;-86
2021/05/10 14:59:17;;;;;;;5.73;2.23;;;;;;;;;;13005181;22;20328;-87
2021/05/10 15:04:22;;;;;;;5.17;2.00;;;;;;;;;;13033925;22;20520;-87
2021/05/10 15:09:24;;;;;;;5.33;2.00;;;;;;;;;;13035333;22;20177;-87
2021/05/10 15:14:32;;;;;;;3.73;1.90;;;;;;;;;;13038776;22;20232;-88
2021/05/10 15:19:34;;;;;;;6.07;1.70;;;;;;;;;;13037867;22;20174;-88
2021/05/10 15:24:39;;;;;;;3.70;1.57;;;;;;;;;;13041296;22;20177;-88
2021/05/10 15:29:42;;;;;;;5.17;1.70;;;;;;;;;;13035439;22;20196;-86
2021/05/10 15:34:44;;;;;;;4.23;1.60;;;;;;;;;;13039223;22;20231;-87
2021/05/10 15:39:46;;;;;;;3.27;1.47;;;;;;;;;;13036804;22;20259;-87
2021/05/10 15:44:51;;;;;;;3.30;1.50;;;;;;;;;;13037041;22;20197;-87
2021/05/10 15:49:57;;;;;;;3.30;1.73;;;;;;;;;;13038020;22;20173;-88
2021/05/10 15:54:59;;;;;;;6.97;1.80;;;;;;;;;;13038328;22;20233;-86
2021/05/10 16:00:03;;;;;;;5.37;1.60;;;;;;;;;;13034538;22;20177;-87
2021/05/10 16:05:09;;;;;;;4.17;1.50;;;;;;;;;;13036202;22;20208;-86
2021/05/10 16:10:13;;;;;;;3.43;1.60;;;;;;;;;;13037724;22;20166;-86
2021/05/10 16:15:18;;;;;;;3.03;1.40;;;;;;;;;;13033595;22;20312;-86
2021/05/10 16:20:20;;;;;;;4.20;1.40;;;;;;;;;;13035978;22;20177;-87
2021/05/10 16:25:23;;;;;;;3.87;1.70;;;;;;;;;;13049529;22;20178;-87
2021/05/10 16:30:28;;;;;;;3.70;1.50;;;;;;;;;;13038524;22;20204;-86
2021/05/10 16:35:31;;;;;;;3.43;1.57;;;;;;;;;;13012719;22;20197;-86
2021/05/10 16:40:33;;;;;;;7.10;1.60;;;;;;;;;;13035469;22;20274;-87
2021/05/10 16:45:37;;;;;;;3.00;1.40;;;;;;;;;;13037093;22;20546;-86
2021/05/10 16:50:39;;;;;;;4.17;1.47;;;;;;;;;;13036399;22;20468;-81
2021/05/10 16:55:45;;;;;;;2.63;1.30;;;;;;;;;;13041049;22;20208;-87
2021/05/10 17:00:48;;;;;;;3.47;1.40;;;;;;;;;;13037818;22;20639;-88
2021/05/10 17:05:51;;;;;;;3.07;1.40;;;;;;;;;;13040356;22;20240;-86
2021/05/10 17:10:53;;;;;;;6.53;1.97;;;;;;;;;;13034759;22;20177;-86
2021/05/10 17:16:01;;;;;;;4.47;1.60;;;;;;;;;;13037015;22;20190;-87
2021/05/10 17:21:11;;;;;;;5.27;1.90;;;;;;;;;;13044517;22;20181;-87
2021/05/10 17:26:13;;;;;;;5.23;1.70;;;;;;;;;;13038380;22;20205;-88
2021/05/10 17:31:16;;;;;;;3.73;1.53;;;;;;;;;;13034352;22;20201;-86
2021/05/10 17:36:18;;;;;;;3.20;1.50;;;;;;;;;;13033660;22;20614;-88
2021/05/10 17:41:22;;;;;;;6.30;1.80;;;;;;;;;;13039436;22;20836;-90
2021/05/10 17:46:25;;;;;;;4.30;1.60;;;;;;;;;;13044845;22;20194;-88
2021/05/10 17:51:31;;;;;;;6.93;2.33;;;;;;;;;;13044048;22;20197;-90
2021/05/10 17:56:37;;;;;;;4.13;1.63;;;;;;;;;;13046876;22;20463;-89
2021/05/10 18:07:00;;;;;;;4.30;1.80;;;;;;;;;;13037786;22;20189;-90
2021/05/10 18:12:02;;;;;;;6.33;2.20;;;;;;;;;;13048031;22;20288;-90
2021/05/10 18:17:08;;;;;;;5.47;1.63;;;;;;;;;;13044978;22;20611;-93
2021/05/10 18:22:14;;;;;;;6.53;1.90;;;;;;;;;;13048786;22;20203;-89
2021/05/10 18:27:16;;;;;;;8.03;2.50;;;;;;;;;;13045806;22;20181;-88
2021/05/10 18:32:20;;;;;;;6.43;2.30;;;;;;;;;;13046956;22;20221;-89
2021/05/10 18:37:38;;;;;;;9.00;2.33;;;;;;;;;;13045019;22;20183;-88
2021/05/10 18:42:40;;;;;;;9.30;2.60;;;;;;;;;;13043765;22;20209;-91
2021/05/10 18:47:44;;;;;;;9.47;2.40;;;;;;;;;;13045380;22;20185;-89
2021/05/10 18:52:50;;;;;;;9.13;2.40;;;;;;;;;;13050264;22;20527;-88
2021/05/10 18:57:53;;;;;;;9.00;2.30;;;;;;;;;;13045265;22;20203;-88
2021/05/10 19:02:57;;;;;;;7.07;2.50;;;;;;;;;;13043390;22;20177;-88
2021/05/10 19:08:03;;;;;;;12.20;2.80;;;;;;;;;;13043335;22;20174;-87
2021/05/10 19:13:05;;;;;;;9.73;2.47;;;;;;;;;;13045001;22;20234;-88
2021/05/10 19:18:09;;;;;;;7.30;2.33;;;;;;;;;;13040835;22;20178;-87
2021/05/10 19:23:14;;;;;;;8.37;2.50;;;;;;;;;;13044689;22;20919;-88
2021/05/10 19:28:16;;;;;;;9.50;2.83;;;;;;;;;;13042938;22;20268;-87
2021/05/10 19:33:20;;;;;;;7.83;2.77;;;;;;;;;;13042211;22;20210;-88
2021/05/10 19:38:29;;;;;;;6.43;2.60;;;;;;;;;;13041339;22;20189;-89
2021/05/10 19:43:32;;;;;;;9.57;3.00;;;;;;;;;;13040262;22;20276;-90
2021/05/10 19:48:39;;;;;;;10.87;3.13;;;;;;;;;;13041764;22;20193;-89
2021/05/10 19:59:13;;;;;;;13.37;2.63;;;;;;;;;;13039810;22;20501;-87
2021/05/10 20:04:16;;;;;;;9.80;2.40;;;;;;;;;;13037614;22;20585;-89
2021/05/10 20:09:21;;;;;;;11.53;4.40;;;;;;;;;;13040960;22;20169;-89
2021/05/10 20:14:23;;;;;;;13.87;5.23;;;;;;;;;;13035934;22;20254;-89
2021/05/10 20:19:28;;;;;;;9.90;3.07;;;;;;;;;;13034804;22;20180;-89
2021/05/10 20:24:41;;;;;;;10.93;3.10;;;;;;;;;;13022529;22;20205;-90
2021/05/10 20:29:45;;;;;;;10.57;3.03;;;;;;;;;;13038777;22;20181;-90
2021/05/10 20:34:50;;;;;;;9.03;3.13;;;;;;;;;;13040797;22;20758;-90
2021/05/10 20:39:53;;;;;;;9.43;2.87;;;;;;;;;;13039594;22;20771;-90
2021/05/10 20:45:00;;;;;;;11.63;3.17;;;;;;;;;;13040074;22;20201;-91
2021/05/10 20:50:07;;;;;;;7.90;2.23;;;;;;;;;;13042908;22;20185;-91
2021/05/10 20:55:15;;;;;;;9.73;2.50;;;;;;;;;;13042028;22;20206;-89
2021/05/10 21:00:18;;;;;;;7.63;2.53;;;;;;;;;;13038149;22;20240;-90
2021/05/10 21:05:25;;;;;;;11.60;2.53;;;;;;;;;;13041910;22;20201;-90
2021/05/10 21:10:50;;;;;;;7.93;2.57;;;;;;;;;;13017822;22;20623;-89
2021/05/10 21:15:53;;;;;;;13.57;2.83;;;;;;;;;;13041002;22;20232;-88
2021/05/10 21:20:58;;;;;;;11.67;2.93;;;;;;;;;;13045682;22;20260;-89
2021/05/10 21:26:05;;;;;;;8.70;2.47;;;;;;;;;;13044979;22;20496;-90
2021/05/10 21:31:08;;;;;;;8.10;2.40;;;;;;;;;;12999416;22;20181;-91
2021/05/10 21:36:11;;;;;;;9.10;2.33;;;;;;;;;;13042020;22;20745;-91
2021/05/10 21:41:17;;;;;;;7.70;2.60;;;;;;;;;;13042551;22;20181;-89
2021/05/10 21:46:23;;;;;;;8.90;2.37;;;;;;;;;;13039421;22;20201;-89
2021/05/10 21:51:30;;;;;;;10.67;2.77;;;;;;;;;;13042405;22;20251;-88
2021/05/10 21:56:33;;;;;;;11.57;2.70;;;;;;;;;;13040132;22;20205;-88
2021/05/10 22:01:37;;;;;;;7.30;2.33;;;;;;;;;;13042064;22;20174;-88
2021/05/10 22:06:41;;;;;;;10.70;2.80;;;;;;;;;;13041616;22;20729;-90
2021/05/10 22:11:44;;;;;;;8.20;2.40;;;;;;;;;;13039963;22;20260;-89
2021/05/10 22:16:50;;;;;;;8.33;2.50;;;;;;;;;;13037270;22;20181;-88
2021/05/10 22:22:01;;;;;;;8.23;2.40;;;;;;;;;;13031897;22;20972;-89
2021/05/10 22:27:08;;;;;;;10.73;2.73;;;;;;;;;;13045497;22;20573;-88
2021/05/10 22:32:11;;;;;;;7.70;2.60;;;;;;;;;;13037461;22;20208;-89
2021/05/10 22:37:17;;;;;;;8.90;2.47;;;;;;;;;;13022187;22;20177;-89
2021/05/10 22:42:25;;;;;;;9.77;2.87;;;;;;;;;;13044513;22;20173;-89
2021/05/10 23:09:25;;;;;;;8.57;2.43;;;;;;;;;;13045396;22;20579;-89
2021/05/10 23:14:49;;;;;;;10.50;2.43;;;;;;;;;;13046045;22;20205;-89
2021/05/10 23:19:51;;;;;;;7.67;2.67;;;;;;;;;;13047078;22;20173;-89
2021/05/10 23:24:55;;;;;;;6.60;2.40;;;;;;;;;;13048717;22;20197;-90
2021/05/10 23:30:01;;;;;;;9.00;2.10;;;;;;;;;;13042003;22;20177;-90
2021/05/10 23:35:07;;;;;;;9.50;2.40;;;;;;;;;;13047346;22;20233;-91
2021/05/10 23:40:11;;;;;;;5.77;2.30;;;;;;;;;;13047527;22;20786;-89
2021/05/10 23:45:14;;;;;;;9.60;2.37;;;;;;;;;;13047443;22;20190;-90
2021/05/10 23:50:22;;;;;;;7.00;2.50;;;;;;;;;;13048037;22;20178;-88
2021/05/10 23:55:33;;;;;;;7.40;2.50;;;;;;;;;;13048378;22;20308;-89
